Time;durP1;ratioP1;P1;durP2;ratioP2;P2;SDS_P1;SDS_P2;PMS_P1;PMS_P2;Temp;Humidity;BMP_temperature;BMP_pressure;BME280_temperature;BME280_humidity;BME280_pressure;Samples;Min_cycle;Max_cycle;Signal;HPM_P1;HPM_P2
2023/08/14 00:00:13;;;;;;;8.80;1.90;;;28.60;99.90;;;;;;5046012;28;20021;-53
2023/08/14 00:02:39;;;;;;;11.93;1.92;;;28.50;99.90;;;;;;5038827;28;20025;-50
2023/08/14 00:05:07;;;;;;;13.98;5.63;;;28.60;99.90;;;;;;5032627;28;20022;-51
2023/08/14 00:07:34;;;;;;;15.40;6.38;;;28.60;99.90;;;;;;5025642;28;20278;-48
2023/08/14 00:10:01;;;;;;;16.52;6.13;;;;;;;;;;5040000;28;20025;-49
2023/08/14 00:12:27;;;;;;;16.92;4.43;;;;;;;;;;5041700;28;20217;-48
2023/08/14 00:14:54;;;;;;;10.35;3.60;;;;;;;;;;5041194;28;20041;-51
2023/08/14 00:17:20;;;;;;;10.55;3.05;;;;;;;;;;5045152;28;20029;-49
2023/08/14 00:19:48;;;;;;;8.93;2.60;;;;;;;;;;5045172;28;20017;-53
2023/08/14 00:22:15;;;;;;;4.88;2.72;;;;;;;;;;5045410;28;20037;-52
2023/08/14 00:24:41;;;;;;;9.45;3.55;;;;;;;;;;5045085;28;20017;-48
2023/08/14 00:27:08;;;;;;;11.27;2.78;;;;;;;;;;5043569;28;20099;-47
2023/08/14 00:29:35;;;;;;;11.98;2.90;;;;;;;;;;5045156;28;20075;-45
2023/08/14 00:32:01;;;;;;;7.20;2.30;;;;;;;;;;5044596;28;20080;-50
2023/08/14 00:34:28;;;;;;;9.63;2.10;;;;;;;;;;5043511;28;20396;-49
2023/08/14 00:36:55;;;;;;;7.82;1.95;;;;;;;;;;5044739;28;20037;-51
2023/08/14 00:39:21;;;;;;;9.45;2.28;;;;;;;;;;5036300;28;20017;-44
2023/08/14 00:41:48;;;;;;;9.02;2.10;;;;;;;;;;5044516;28;20041;-46
2023/08/14 00:44:15;;;;;;;8.88;1.70;;;;;;;;;;5043689;28;20072;-46
2023/08/14 00:46:41;;;;;;;10.00;2.47;;;;;;;;;;5044815;28;20033;-49
2023/08/14 00:49:10;;;;;;;8.07;2.60;;;;;;;;;;5043807;28;20222;-47
2023/08/14 00:51:36;;;;;;;10.43;2.80;;;;;;;;;;5043978;28;20033;-54
2023/08/14 00:54:04;;;;;;;11.13;2.78;;;;;;;;;;5044576;28;20089;-48
2023/08/14 00:56:31;;;;;;;11.60;2.83;;;;;;;;;;5044944;28;20360;-47
2023/08/14 00:58:58;;;;;;;7.88;2.35;;;;;;;;;;5043594;28;20056;-51
2023/08/14 01:01:25;;;;;;;11.73;3.28;;;;;;;;;;5044571;28;20025;-54
2023/08/14 01:03:52;;;;;;;16.58;4.65;;;;;;;;;;5044381;28;20021;-48
2023/08/14 01:06:19;;;;;;;18.10;5.68;;;;;;;;;;5044739;28;20025;-55
2023/08/14 01:08:46;;;;;;;13.88;5.50;;;;;;;;;;5044639;28;20033;-52
2023/08/14 01:11:31;;;;;;;13.75;4.70;;;28.60;99.90;;;;;;5044468;28;20060;-53
2023/08/14 01:14:31;;;;;;;13.15;3.92;;;28.40;99.90;;;;;;5045068;28;20027;-52
2023/08/14 01:17:07;;;;;;;14.70;3.35;;;28.40;99.90;;;;;;5003838;28;20043;-48
2023/08/14 01:19:37;;;;;;;14.10;3.47;;;28.30;99.90;;;;;;5043778;28;20017;-57
2023/08/14 01:22:12;;;;;;;15.48;3.97;;;28.30;99.90;;;;;;5044130;28;20021;-49
2023/08/14 01:25:07;;;;;;;11.57;4.38;;;28.30;99.90;;;;;;5024947;28;20097;-55
2023/08/14 01:27:33;;;;;;;14.65;4.25;;;28.30;99.90;;;;;;5013982;28;20038;-46
2023/08/14 01:30:00;;;;;;;16.80;4.53;;;28.40;99.90;;;;;;5024691;28;20188;-47
2023/08/14 01:32:27;;;;;;;12.95;3.47;;;;;;;;;;5024464;28;20032;-48
2023/08/14 01:34:55;;;;;;;11.63;3.40;;;;;;;;;;5026891;28;20121;-48
2023/08/14 01:37:43;;;;;;;12.63;4.82;;;;;;;;;;5043043;28;20037;-53
2023/08/14 01:40:13;;;;;;;14.40;5.35;;;;;;;;;;5043561;28;20067;-45
2023/08/14 01:42:39;;;;;;;12.93;4.63;;;;;;;;;;5044097;28;20052;-46
2023/08/14 01:45:08;;;;;;;8.18;3.72;;;;;;;;;;5044652;28;20044;-52
2023/08/14 01:47:35;;;;;;;11.43;3.30;;;;;;;;;;5041807;28;20064;-53
2023/08/14 01:50:03;;;;;;;11.77;3.63;;;;;;;;;;5044290;28;20049;-53
2023/08/14 01:52:30;;;;;;;8.20;3.83;;;;;;;;;;5024460;28;20328;-50
2023/08/14 01:55:00;;;;;;;37.95;8.13;;;;;;;;;;5032164;28;20325;-53
2023/08/14 01:57:29;;;;;;;19.20;5.68;;;;;;;;;;5042725;28;20037;-55
2023/08/14 01:59:57;;;;;;;20.60;4.25;;;;;;;;;;5027304;28;20092;-49
2023/08/14 02:02:26;;;;;;;17.73;3.67;;;;;;;;;;5046887;28;20022;-55
2023/08/14 02:04:52;;;;;;;17.02;3.25;;;;;;;;;;5046563;28;20028;-53
2023/08/14 02:07:19;;;;;;;20.25;2.42;;;;;;;;;;5043663;28;20021;-49
2023/08/14 02:09:45;;;;;;;15.05;2.45;;;;;;;;;;5047838;28;20079;-49
2023/08/14 02:12:12;;;;;;;10.20;2.25;;;;;;;;;;5041452;28;20096;-54
2023/08/14 02:14:39;;;;;;;15.50;3.33;;;;;;;;;;5045252;28;20021;-49
2023/08/14 02:17:06;;;;;;;10.27;3.35;;;;;;;;;;5049223;28;20097;-50
2023/08/14 02:19:32;;;;;;;13.85;2.80;;;;;;;;;;5041194;28;20056;-51
2023/08/14 02:21:59;;;;;;;7.60;2.30;;;;;;;;;;5048167;28;20044;-46
2023/08/14 02:24:26;;;;;;;8.65;2.35;;;;;;;;;;5047305;28;20056;-47
2023/08/14 02:26:52;;;;;;;9.40;2.65;;;;;;;;;;5039111;28;20037;-46
2023/08/14 02:29:19;;;;;;;8.20;3.35;;;;;;;;;;5035317;28;20029;-54
2023/08/14 02:31:50;;;;;;;12.23;4.05;;;;;;;;;;5049748;28;20119;-48
2023/08/14 02:34:35;;;;;;;8.30;3.10;;;;;;;;;;5058025;28;20048;-51
2023/08/14 02:37:02;;;;;;;7.50;2.70;;;;;;;;;;5059178;28;20286;-48
2023/08/14 02:39:28;;;;;;;17.23;2.65;;;;;;;;;;5055012;28;20227;-50
2023/08/14 02:41:55;;;;;;;9.15;2.40;;;;;;;;;;5043110;28;20059;-47
2023/08/14 02:44:22;;;;;;;9.48;2.30;;;;;;;;;;5046840;28;20025;-51
2023/08/14 02:46:48;;;;;;;7.05;2.47;;;;;;;;;;5047591;28;20034;-51
2023/08/14 02:49:16;;;;;;;10.13;2.53;;;;;;;;;;5047081;28;20017;-53
2023/08/14 02:51:43;;;;;;;7.70;2.35;;;;;;;;;;5047683;28;20074;-51
2023/08/14 02:54:09;;;;;;;8.95;2.25;;;;;;;;;;5045603;28;20265;-51
2023/08/14 02:56:36;;;;;;;8.57;2.88;;;;;;;;;;5046193;28;20033;-51
2023/08/14 02:59:03;;;;;;;9.65;2.33;;;;;;;;;;5046931;28;20024;-48
2023/08/14 03:01:29;;;;;;;7.25;2.10;;;;;;;;;;5047000;28;20034;-47
2023/08/14 03:03:56;;;;;;;11.68;5.10;;;;;;;;;;5045978;28;20009;-50
2023/08/14 03:06:23;;;;;;;10.40;4.13;;;;;;;;;;5027422;28;20029;-55
2023/08/14 03:08:50;;;;;;;9.10;3.03;;;;;;;;;;5046550;28;20036;-52
2023/08/14 03:11:17;;;;;;;9.48;2.90;;;;;;;;;;5046668;28;20028;-49
2023/08/14 03:13:44;;;;;;;10.23;2.75;;;;;;;;;;5045050;28;20025;-49
2023/08/14 03:16:10;;;;;;;10.40;2.90;;;;;;;;;;5046918;28;20037;-52
2023/08/14 03:18:37;;;;;;;9.80;2.45;;;;;;;;;;5046432;28;20028;-54
2023/08/14 03:21:04;;;;;;;9.13;2.72;;;;;;;;;;5046896;28;20265;-50
2023/08/14 03:23:30;;;;;;;18.85;2.60;;;;;;;;;;5046018;28;20185;-56
2023/08/14 03:25:57;;;;;;;5.88;2.40;;;;;;;;;;5026881;28;20174;-50
2023/08/14 03:28:24;;;;;;;4.97;2.00;;;;;;;;;;5045785;28;20044;-52
2023/08/14 03:30:50;;;;;;;5.13;2.10;;;;;;;;;;5046396;28;20093;-53
2023/08/14 03:33:17;;;;;;;6.82;2.40;;;;;;;;;;5045938;28;20028;-53
2023/08/14 03:35:45;;;;;;;7.85;2.03;;;;;;;;;;5046120;28;20045;-56
2023/08/14 03:38:17;;;;;;;7.22;2.03;;;;;;;;;;5040310;28;20029;-51
2023/08/14 03:40:43;;;;;;;;;;;;;;;;;;5029478;28;20096;-52
2023/08/14 03:43:10;;;;;;;10.23;1.92;;;;;;;;;;5008973;28;19944;-51
2023/08/14 03:45:37;;;;;;;5.60;1.80;;;;;;;;;;5026599;28;20038;-48
2023/08/14 03:48:03;;;;;;;5.68;1.80;;;;;;;;;;5026471;28;20068;-53
2023/08/14 03:50:30;;;;;;;8.80;2.08;;;;;;;;;;5026291;28;20030;-49
2023/08/14 03:52:57;;;;;;;3.40;1.70;;;;;;;;;;5029930;28;20021;-52
2023/08/14 03:55:26;;;;;;;5.30;1.77;;;;;;;;;;5045397;28;20047;-51
2023/08/14 03:57:54;;;;;;;4.50;1.67;;;;;;;;;;5045954;28;20274;-55
2023/08/14 04:00:21;;;;;;;4.53;1.45;;;;;;;;;;5045507;28;20032;-53
2023/08/14 04:02:47;;;;;;;10.40;2.17;;;;;;;;;;5043427;28;20017;-54
2023/08/14 04:05:14;;;;;;;10.30;2.10;;;;;;;;;;5041497;28;20029;-51
2023/08/14 04:07:41;;;;;;;6.95;1.90;;;;;;;;;;5044525;28;20053;-51
2023/08/14 04:10:08;;;;;;;7.05;1.70;;;;;;;;;;5043029;28;20349;-51
2023/08/14 04:12:34;;;;;;;5.95;1.83;;;;;;;;;;5034348;28;20361;-52
2023/08/14 04:15:15;;;;;;;4.85;1.85;;;;;;;;;;5025812;28;20168;-50
2023/08/14 04:17:43;;;;;;;10.27;2.20;;;;;;;;;;5008630;28;20064;-53
2023/08/14 04:20:10;;;;;;;5.18;1.80;;;;;;;;;;5045261;28;20084;-56
2023/08/14 04:22:37;;;;;;;9.07;1.75;;;;;;;;;;5045243;28;20047;-50
2023/08/14 04:25:04;;;;;;;9.15;2.22;;;;;;;;;;5044778;28;20017;-53
2023/08/14 04:27:31;;;;;;;11.93;2.30;;;;;;;;;;5045212;28;20048;-53
2023/08/14 04:29:57;;;;;;;12.45;1.70;;;;;;;;;;5044940;28;20041;-54
2023/08/14 04:32:24;;;;;;;4.90;1.65;;;;;;;;;;5045107;28;20028;-53
2023/08/14 04:34:51;;;;;;;6.88;1.80;;;;;;;;;;5044789;28;20341;-54
2023/08/14 04:37:17;;;;;;;5.45;1.90;;;;;;;;;;5044801;28;20033;-49
2023/08/14 04:39:44;;;;;;;4.53;2.05;;;;;;;;;;5044636;28;20048;-50
2023/08/14 04:42:11;;;;;;;7.88;2.50;;;;;;;;;;5044479;28;20037;-54
2023/08/14 04:44:37;;;;;;;7.13;2.05;;;;;;;;;;5044671;28;20028;-53
2023/08/14 04:47:04;;;;;;;10.32;2.58;;;;;;;;;;5044807;28;20030;-50
2023/08/14 04:49:30;;;;;;;8.55;2.15;;;;;;;;;;5044674;28;20079;-50
2023/08/14 04:51:58;;;;;;;8.30;1.77;;;;;;;;;;5043696;28;20078;-52
2023/08/14 04:54:31;;;;;;;8.55;1.90;;;;;;;;;;5044302;28;20061;-51
2023/08/14 04:56:58;;;;;;;8.35;2.00;;;;;;;;;;5044540;28;20033;-49
2023/08/14 04:59:25;;;;;;;8.70;1.85;;;;;;;;;;5044394;28;20040;-47
2023/08/14 05:01:52;;;;;;;8.77;2.30;;;;;;;;;;5044438;28;20037;-51
2023/08/14 05:04:18;;;;;;;4.45;2.00;;;;;;;;;;5044553;28;20033;-53
2023/08/14 05:06:45;;;;;;;6.15;1.90;;;;;;;;;;5044177;28;20056;-47
2023/08/14 05:09:12;;;;;;;8.75;2.00;;;;;;;;;;5043494;28;20226;-53
2023/08/14 05:11:38;;;;;;;8.20;2.03;;;;;;;;;;5044264;28;20262;-50
2023/08/14 05:14:05;;;;;;;6.65;1.90;;;;;;;;;;5044642;28;20060;-50
2023/08/14 05:16:32;;;;;;;7.15;1.73;;;;;;;;;;5044262;28;20092;-51
2023/08/14 05:18:58;;;;;;;9.13;2.05;;;;;;;;;;5044653;28;20032;-48
2023/08/14 05:21:25;;;;;;;6.88;1.70;;;;;;;;;;5043999;28;20022;-50
2023/08/14 05:23:51;;;;;;;5.38;2.00;;;;;;;;;;5044270;28;20366;-52
2023/08/14 05:26:18;;;;;;;8.05;2.13;;;;;;;;;;5044188;28;20017;-48
2023/08/14 05:28:45;;;;;;;4.90;1.50;;;;;;;;;;5043989;28;20044;-53
2023/08/14 05:31:12;;;;;;;7.50;1.85;;;;;;;;;;5043898;28;20152;-54
2023/08/14 05:33:38;;;;;;;5.35;1.67;;;;;;;;;;5044323;28;20040;-52
2023/08/14 05:36:05;;;;;;;5.50;1.85;;;;;;;;;;5043346;28;20048;-47
2023/08/14 05:38:32;;;;;;;7.95;1.75;;;;;;;;;;5043831;28;20037;-55
2023/08/14 05:40:59;;;;;;;5.40;1.70;;;;;;;;;;5043739;28;20017;-50
2023/08/14 05:43:26;;;;;;;5.32;1.75;;;;;;;;;;5044239;28;20033;-51
2023/08/14 05:45:52;;;;;;;8.75;1.95;;;;;;;;;;5043856;28;20044;-55
2023/08/14 05:48:21;;;;;;;11.73;2.20;;;;;;;;;;5044249;28;20021;-51
2023/08/14 05:50:49;;;;;;;7.82;1.80;;;;;;;;;;5043821;28;20029;-49
2023/08/14 05:53:16;;;;;;;5.53;1.80;;;;;;;;;;5043193;28;20078;-54
2023/08/14 05:55:42;;;;;;;6.50;1.80;;;;;;;;;;5043449;28;20373;-51
2023/08/14 05:58:09;;;;;;;7.53;2.10;;;;;;;;;;5043711;28;20060;-51
2023/08/14 06:00:37;;;;;;;5.78;1.88;;;27.60;99.90;;;;;;5043507;28;20029;-52
2023/08/14 06:03:04;;;;;;;7.68;2.55;;;27.50;99.90;;;;;;5043788;28;20135;-55
2023/08/14 06:05:32;;;;;;;12.93;2.53;;;27.50;99.90;;;;;;5044524;28;20017;-51
2023/08/14 06:07:58;;;;;;;14.10;2.33;;;;;;;;;;5043255;28;20036;-53
2023/08/14 06:10:25;;;;;;;11.25;2.33;;;;;;;;;;5043620;28;20022;-49
2023/08/14 06:12:52;;;;;;;6.18;1.83;;;;;;;;;;5043337;28;20071;-56
2023/08/14 06:15:19;;;;;;;5.50;2.15;;;;;;;;;;5042962;28;20022;-51
2023/08/14 06:17:46;;;;;;;15.75;2.38;;;;;;;;;;5043738;28;20362;-55
2023/08/14 06:20:13;;;;;;;11.07;2.50;;;;;;;;;;5043580;28;20029;-50
2023/08/14 06:22:40;;;;;;;11.57;2.30;;;;;;;;;;5041599;28;20132;-52
2023/08/14 06:25:08;;;;;;;12.35;2.95;;;;;;;;;;5043169;28;20080;-56
2023/08/14 06:27:36;;;;;;;7.03;2.35;;;;;;;;;;5043213;28;20128;-47
2023/08/14 06:30:03;;;;;;;9.32;2.63;;;27.60;99.90;;;;;;5043278;28;20040;-54
2023/08/14 06:32:30;;;;;;;7.68;2.72;;;27.40;99.90;;;;;;5043563;28;20189;-50
2023/08/14 06:34:56;;;;;;;5.45;2.58;;;27.30;99.90;;;;;;5043258;28;20107;-55
2023/08/14 06:37:23;;;;;;;7.45;2.75;;;27.30;99.90;;;;;;5042981;28;20044;-48
2023/08/14 06:39:49;;;;;;;6.93;2.45;;;27.30;99.90;;;;;;5043421;28;20041;-54
2023/08/14 06:42:16;;;;;;;7.40;2.38;;;27.40;99.90;;;;;;5043389;28;20036;-48
2023/08/14 06:44:42;;;;;;;5.47;1.90;;;27.40;99.90;;;;;;5042593;28;20293;-54
2023/08/14 06:47:09;;;;;;;6.70;1.90;;;27.30;99.90;;;;;;5044044;28;20084;-57
2023/08/14 06:49:35;;;;;;;4.53;2.03;;;27.40;99.90;;;;;;5046995;28;20068;-52
2023/08/14 06:52:02;;;;;;;8.48;1.90;;;27.40;99.90;;;;;;5046834;28;20373;-51
2023/08/14 06:54:29;;;;;;;5.25;2.17;;;27.40;99.90;;;;;;5046960;28;20017;-51
2023/08/14 06:56:56;;;;;;;6.45;2.03;;;27.40;99.90;;;;;;5046817;28;20317;-53
2023/08/14 06:59:22;;;;;;;6.28;2.00;;;27.40;99.90;;;;;;5045839;28;20318;-54
2023/08/14 07:01:49;;;;;;;5.43;1.88;;;27.40;99.90;;;;;;5046017;28;20021;-49
2023/08/14 07:04:15;;;;;;;7.65;2.00;;;27.40;99.90;;;;;;5046676;28;20021;-48
2023/08/14 07:06:42;;;;;;;8.20;2.17;;;27.40;99.90;;;;;;5046375;28;20116;-52
2023/08/14 07:09:08;;;;;;;7.70;1.65;;;27.40;99.90;;;;;;5046221;28;20029;-51
2023/08/14 07:11:38;;;;;;;7.15;1.88;;;27.30;99.90;;;;;;5047145;28;20025;-51
2023/08/14 07:14:06;;;;;;;9.48;2.10;;;27.30;99.90;;;;;;5046952;28;20044;-54
2023/08/14 07:16:33;;;;;;;8.55;2.40;;;27.30;99.90;;;;;;5046403;28;20028;-53
2023/08/14 07:19:00;;;;;;;5.30;1.95;;;27.40;99.90;;;;;;5046879;28;20029;-48
2023/08/14 07:21:27;;;;;;;4.50;1.67;;;;;;;;;;5046279;28;20068;-50
2023/08/14 07:23:56;;;;;;;6.70;2.10;;;;;;;;;;5046492;28;20025;-51
2023/08/14 07:26:22;;;;;;;4.90;1.70;;;;;;;;;;5046391;28;20036;-50
2023/08/14 07:28:49;;;;;;;3.72;1.58;;;;;;;;;;5046588;28;20041;-50
2023/08/14 07:31:16;;;;;;;5.22;1.83;;;;;;;;;;5046239;28;20022;-49
2023/08/14 07:33:42;;;;;;;5.70;1.88;;;;;;;;;;5046517;28;20064;-51
2023/08/14 07:36:09;;;;;;;7.95;2.00;;;;;;;;;;5045830;28;20080;-51
2023/08/14 07:38:36;;;;;;;6.80;2.00;;;;;;;;;;5046259;28;20033;-51
2023/08/14 07:41:02;;;;;;;4.47;1.77;;;;;;;;;;5046058;28;20048;-53
2023/08/14 07:43:29;;;;;;;7.82;2.25;;;;;;;;;;5046364;28;20190;-49
2023/08/14 07:45:55;;;;;;;6.55;1.95;;;;;;;;;;5045814;28;20032;-53
2023/08/14 07:48:22;;;;;;;4.95;1.70;;;;;;;;;;5046157;28;20310;-48
2023/08/14 07:50:53;;;;;;;5.25;2.08;;;;;;;;;;5045825;28;20036;-48
2023/08/14 07:53:19;;;;;;;11.35;2.58;;;;;;;;;;5045859;28;20033;-50
2023/08/14 07:55:49;;;;;;;5.05;2.17;;;;;;;;;;5045660;28;20040;-55
2023/08/14 07:58:17;;;;;;;5.13;2.03;;;;;;;;;;5045343;28;20025;-52
2023/08/14 08:00:44;;;;;;;7.85;2.10;;;;;;;;;;5045675;28;20066;-54
2023/08/14 08:03:11;;;;;;;7.18;1.80;;;;;;;;;;5048283;28;20252;-56
2023/08/14 08:05:37;;;;;;;7.38;2.00;;;;;;;;;;5045437;28;20044;-56
2023/08/14 08:08:04;;;;;;;6.32;1.73;;;;;;;;;;5045558;28;20025;-54
2023/08/14 08:10:31;;;;;;;4.57;1.60;;;;;;;;;;5045497;28;20029;-55
2023/08/14 08:12:57;;;;;;;3.75;1.77;;;;;;;;;;5045614;28;20070;-56
2023/08/14 08:15:24;;;;;;;6.70;1.80;;;;;;;;;;5045337;28;20037;-48
2023/08/14 08:17:51;;;;;;;5.75;1.90;;;;;;;;;;5045511;28;20040;-50
2023/08/14 08:20:18;;;;;;;5.95;1.90;;;;;;;;;;5045245;28;20049;-51
2023/08/14 08:22:44;;;;;;;12.07;1.98;;;;;;;;;;5045192;28;20033;-52
2023/08/14 08:25:11;;;;;;;6.78;1.95;;;;;;;;;;5045240;28;20022;-51
2023/08/14 08:27:38;;;;;;;7.38;1.98;;;;;;;;;;5045302;28;20069;-57
2023/08/14 08:30:04;;;;;;;6.93;2.03;;;;;;;;;;5043769;28;20213;-56
2023/08/14 08:32:31;;;;;;;8.27;1.90;;;;;;;;;;5046080;28;20033;-49
2023/08/14 08:34:58;;;;;;;4.85;1.80;;;;;;;;;;5044811;28;20284;-57
2023/08/14 08:37:24;;;;;;;7.38;2.10;;;;;;;;;;5044520;28;20093;-48
2023/08/14 08:39:51;;;;;;;6.03;1.90;;;;;;;;;;5045057;28;20268;-52
2023/08/14 08:42:19;;;;;;;5.43;1.90;;;;;;;;;;5044992;28;20037;-49
2023/08/14 08:44:46;;;;;;;4.97;1.92;;;;;;;;;;5044688;28;20021;-48
2023/08/14 08:47:15;;;;;;;4.72;1.77;;;;;;;;;;5044814;28;20037;-46
2023/08/14 08:49:42;;;;;;;5.32;1.83;;;;;;;;;;5044633;28;20056;-56
2023/08/14 08:52:09;;;;;;;5.82;2.15;;;;;;;;;;5044097;28;20025;-54
2023/08/14 08:54:37;;;;;;;5.07;2.00;;;;;;;;;;5044722;28;20217;-54
2023/08/14 08:57:05;;;;;;;8.35;2.00;;;;;;;;;;5044546;28;20041;-53
2023/08/14 08:59:32;;;;;;;7.40;1.80;;;;;;;;;;5044389;28;20059;-48
2023/08/14 09:02:00;;;;;;;7.63;1.77;;;;;;;;;;5044526;28;20070;-49
2023/08/14 09:04:27;;;;;;;7.72;1.90;;;;;;;;;;5044482;28;20187;-53
2023/08/14 09:06:54;;;;;;;7.03;1.70;;;;;;;;;;5043883;28;20021;-49
2023/08/14 09:09:21;;;;;;;6.20;1.98;;;;;;;;;;5043980;28;20072;-51
2023/08/14 09:11:47;;;;;;;7.25;1.83;;;;;;;;;;5043941;28;20082;-50
2023/08/14 09:14:17;;;;;;;8.52;2.33;;;;;;;;;;5044066;28;20029;-50
2023/08/14 09:16:44;;;;;;;7.13;2.30;;;;;;;;;;5043904;28;20037;-54
2023/08/14 09:19:13;;;;;;;6.28;2.05;;;;;;;;;;5044250;28;20033;-55
2023/08/14 09:21:42;;;;;;;8.88;2.30;;;;;;;;;;5043713;28;20021;-53
2023/08/14 09:24:10;;;;;;;7.22;2.15;;;;;;;;;;5044070;28;20033;-52
2023/08/14 09:26:37;;;;;;;6.60;2.10;;;;;;;;;;5044130;28;20087;-53
2023/08/14 09:29:03;;;;;;;6.13;1.95;;;;;;;;;;5044281;28;20327;-54
2023/08/14 09:31:33;;;;;;;6.32;2.08;;;;;;;;;;5044085;28;20114;-47
2023/08/14 09:34:01;;;;;;;7.00;2.35;;;;;;;;;;5044413;28;20267;-54
2023/08/14 09:36:36;;;;;;;5.63;2.38;;;;;;;;;;5043475;28;20091;-51
2023/08/14 09:39:03;;;;;;;11.77;3.33;;;;;;;;;;5043914;28;20091;-52
2023/08/14 09:41:31;;;;;;;8.88;2.85;;;;;;;;;;5043775;28;20089;-51
2023/08/14 09:44:00;;;;;;;13.10;2.83;;;;;;;;;;5044351;28;20021;-52
2023/08/14 09:46:28;;;;;;;8.52;2.17;;;;;;;;;;5043914;28;20202;-53
2023/08/14 09:48:55;;;;;;;7.75;2.45;;;;;;;;;;5044156;28;20233;-52
2023/08/14 09:51:22;;;;;;;7.05;2.20;;;;;;;;;;5043564;28;20021;-53
2023/08/14 09:53:51;;;;;;;8.30;2.45;;;;;;;;;;5044305;28;20049;-54
2023/08/14 09:56:18;;;;;;;6.78;2.20;;;;;;;;;;5043521;28;20040;-51
2023/08/14 09:58:45;;;;;;;8.95;2.17;;;;;;;;;;5044193;28;20013;-55
2023/08/14 10:01:13;;;;;;;5.97;2.28;;;;;;;;;;5043769;28;20021;-49
2023/08/14 10:03:41;;;;;;;6.78;2.15;;;;;;;;;;5043990;28;20096;-53
2023/08/14 10:06:11;;;;;;;7.72;2.30;;;;;;;;;;5041372;28;20021;-53
2023/08/14 10:08:38;;;;;;;4.85;2.17;;;;;;;;;;5043616;28;20045;-52
2023/08/14 10:11:05;;;;;;;7.80;2.72;;;;;;;;;;5043398;28;20248;-47
2023/08/14 10:13:37;;;;;;;16.08;3.47;;;;;;;;;;5044062;28;20032;-47
2023/08/14 10:16:10;;;;;;;18.25;3.28;;;;;;;;;;5043593;28;20033;-50
2023/08/14 10:18:36;;;;;;;;;;;;;;;;;;5044464;28;20045;-52
2023/08/14 10:21:04;;;;;;;13.40;3.53;;;;;;;;;;5043818;28;19947;-58
2023/08/14 10:23:31;;;;;;;17.15;3.88;;;;;;;;;;5047791;28;20349;-56
2023/08/14 10:25:58;;;;;;;26.63;4.28;;;;;;;;;;5047566;28;20067;-53
2023/08/14 10:28:25;;;;;;;27.90;3.67;;;;;;;;;;5047854;28;20244;-52
2023/08/14 10:30:52;;;;;;;17.45;3.38;;;;;;;;;;5047229;28;20336;-56
2023/08/14 10:33:19;;;;;;;16.15;3.45;;;;;;;;;;5047545;28;20056;-55
2023/08/14 10:35:50;;;;;;;22.48;4.13;;;;;;;;;;5059922;28;20048;-57
2023/08/14 10:38:16;;;;;;;59.10;6.95;;;;;;;;;;5067435;28;20044;-53
2023/08/14 10:40:56;;;;;;;52.63;6.70;;;;;;;;;;5067302;28;20029;-50
2023/08/14 10:43:26;;;;;;;56.25;6.53;;;;;;;;;;5067140;28;20028;-51
2023/08/14 10:45:53;;;;;;;40.35;5.85;;;;;;;;;;5066941;28;20029;-54
2023/08/14 10:48:20;;;;;;;54.92;6.57;;;;;;;;;;5067431;28;20021;-54
2023/08/14 10:50:49;;;;;;;34.15;5.15;;;;;;;;;;5066585;28;20052;-54
2023/08/14 10:53:16;;;;;;;32.53;5.57;;;;;;;;;;5067197;28;20078;-55
2023/08/14 10:55:47;;;;;;;39.03;6.05;;;;;;;;;;5066960;28;20017;-51
2023/08/14 10:58:35;;;;;;;35.05;6.07;;;;;;;;;;5066966;28;20025;-56
2023/08/14 11:01:05;;;;;;;22.90;5.15;;;;;;;;;;5058817;28;20029;-52
2023/08/14 11:03:35;;;;;;;20.05;5.57;;;;;;;;;;5027739;28;20022;-57
2023/08/14 11:06:02;;;;;;;18.85;4.85;;;;;;;;;;5045696;28;20075;-49
2023/08/14 11:08:31;;;;;;;16.73;5.10;;;;;;;;;;5046403;28;20052;-48
2023/08/14 11:10:58;;;;;;;14.65;4.38;;;;;;;;;;5045698;28;20029;-50
2023/08/14 11:13:28;;;;;;;25.80;3.80;;;;;;;;;;5046798;28;20044;-49
2023/08/14 11:15:55;;;;;;;15.32;3.40;;;;;;;;;;5047310;28;20021;-47
2023/08/14 11:18:22;;;;;;;15.95;4.65;;;;;;;;;;5047118;28;20029;-51
2023/08/14 11:20:48;;;;;;;13.02;3.72;;;;;;;;;;5028393;28;20367;-52
2023/08/14 11:23:15;;;;;;;17.27;3.47;;;;;;;;;;5046769;28;20021;-50
2023/08/14 11:25:42;;;;;;;17.73;3.40;;;;;;;;;;5046439;28;20029;-48
2023/08/14 11:28:08;;;;;;;18.80;3.60;;;;;;;;;;5045952;28;20032;-51
2023/08/14 11:30:38;;;;;;;14.80;3.25;;;;;;;;;;5046363;28;20017;-54
2023/08/14 11:33:06;;;;;;;12.00;3.30;;;;;;;;;;5044652;28;20037;-52
2023/08/14 11:35:33;;;;;;;12.40;3.85;;;;;;;;;;5045618;28;20060;-48
2023/08/14 11:37:59;;;;;;;40.65;17.25;;;;;;;;;;5045401;28;20035;-52
2023/08/14 11:40:26;;;;;;;28.30;10.70;;;;;;;;;;5025845;28;20049;-47
2023/08/14 11:42:53;;;;;;;24.35;10.45;;;;;;;;;;5026600;28;20303;-48
2023/08/14 11:45:19;;;;;;;23.65;9.05;;;;;;;;;;5026185;28;20014;-46
2023/08/14 11:47:49;;;;;;;20.63;8.30;;;;;;;;;;5026077;28;20084;-52
2023/08/14 11:50:16;;;;;;;23.08;8.25;;;;;;;;;;5025697;28;20057;-50
2023/08/14 11:52:44;;;;;;;24.05;7.30;;;;;;;;;;5026097;28;20025;-50
2023/08/14 11:55:10;;;;;;;12.65;5.70;;;;;;;;;;5024250;28;20040;-51
2023/08/14 11:57:37;;;;;;;19.35;5.40;;;;;;;;;;5045926;28;20329;-50
2023/08/14 12:00:10;;;;;;;15.25;5.22;;;;;;;;;;5045753;28;20025;-50
2023/08/14 12:02:40;;;;;;;13.93;4.40;;;;;;;;;;5045842;28;20040;-50
2023/08/14 12:05:08;;;;;;;17.60;7.90;;;;;;;;;;5045173;28;20029;-54
2023/08/14 12:07:34;;;;;;;20.70;9.45;;;;;;;;;;5045532;28;20088;-51
2023/08/14 12:10:08;;;;;;;17.88;8.18;;;;;;;;;;5045637;28;20204;-50
2023/08/14 12:12:34;;;;;;;12.70;4.80;;;;;;;;;;5046157;28;20066;-54
2023/08/14 12:15:01;;;;;;;16.05;4.85;;;;;;;;;;5045506;28;20048;-50
2023/08/14 12:17:30;;;;;;;14.18;4.32;;;;;;;;;;5045200;28;20038;-50
2023/08/14 12:20:03;;;;;;;16.65;4.60;;;;;;;;;;5045162;28;20313;-48
2023/08/14 12:22:31;;;;;;;14.00;4.93;;;;;;;;;;5028007;28;20017;-49
2023/08/14 12:24:58;;;;;;;14.32;4.70;;;;;;;;;;5045667;28;20329;-52
2023/08/14 12:27:26;;;;;;;14.40;4.88;;;;;;;;;;5045703;28;20079;-52
2023/08/14 12:29:54;;;;;;;10.98;4.72;;;;;;;;;;5045271;28;20210;-49
2023/08/14 12:32:21;;;;;;;14.13;3.70;;;;;;;;;;5045680;28;20037;-45
2023/08/14 12:34:48;;;;;;;11.73;3.80;;;;;;;;;;5044465;28;20333;-46
2023/08/14 12:37:15;;;;;;;13.40;5.18;;;;;;;;;;5045137;28;20040;-47
2023/08/14 12:39:43;;;;;;;26.58;4.55;;;;;;;;;;5044860;28;20037;-60
2023/08/14 12:42:12;;;;;;;12.85;4.20;;;;;;;;;;5045373;28;20048;-52
2023/08/14 12:44:39;;;;;;;10.07;4.25;;;;;;;;;;5044887;28;20061;-49
2023/08/14 12:47:06;;;;;;;13.85;3.75;;;;;;;;;;5045096;28;20098;-47
2023/08/14 12:49:35;;;;;;;14.73;4.60;;;;;;;;;;5044027;28;20013;-50
2023/08/14 12:52:02;;;;;;;18.58;4.85;;;;;;;;;;5043874;28;20045;-51
2023/08/14 12:54:28;;;;;;;12.00;3.63;;;;;;;;;;5044654;28;20041;-47
2023/08/14 12:56:55;;;;;;;9.13;3.50;;;;;;;;;;5043948;28;20017;-46
2023/08/14 12:59:23;;;;;;;8.38;3.33;;;;;;;;;;5044173;28;20025;-48
2023/08/14 13:01:50;;;;;;;12.38;4.03;;;;;;;;;;5042940;28;20089;-46
2023/08/14 13:04:16;;;;;;;11.05;3.90;;;;;;;;;;5044544;28;20045;-48
2023/08/14 13:06:43;;;;;;;11.15;3.80;;;;;;;;;;5044553;28;20025;-47
2023/08/14 13:09:12;;;;;;;14.27;3.90;;;;;;;;;;5042340;28;20221;-48
2023/08/14 13:11:40;;;;;;;12.77;3.92;;;;;;;;;;5043908;28;20329;-50
2023/08/14 13:14:06;;;;;;;8.95;3.38;;;;;;;;;;5042326;28;20344;-59
2023/08/14 13:16:36;;;;;;;10.75;3.60;;;;;;;;;;5044001;28;20021;-52
2023/08/14 13:19:03;;;;;;;9.90;3.33;;;;;;;;;;5040709;28;20021;-51
2023/08/14 13:21:29;;;;;;;19.25;3.53;;;;;;;;;;5044362;28;20083;-48
2023/08/14 13:23:56;;;;;;;11.60;3.55;;;;;;;;;;5041951;28;20036;-46
2023/08/14 13:26:23;;;;;;;9.55;3.10;;;;;;;;;;5043278;28;20096;-53
2023/08/14 13:28:50;;;;;;;7.68;3.45;;;;;;;;;;5044552;28;20036;-52
2023/08/14 13:31:17;;;;;;;6.20;3.03;;;;;;;;;;5044159;28;20226;-50
2023/08/14 13:33:44;;;;;;;10.60;3.05;;;;;;;;;;5041260;28;20122;-51
2023/08/14 13:36:10;;;;;;;9.05;2.90;;;;;;;;;;5043769;28;20041;-54
2023/08/14 13:38:38;;;;;;;10.02;3.10;;;;;;;;;;5044483;28;20029;-48
2023/08/14 13:41:05;;;;;;;8.80;2.78;;;;;;;;;;5043309;28;20020;-48
2023/08/14 13:43:33;;;;;;;12.68;3.15;;;;;;;;;;5043996;28;20097;-47
2023/08/14 13:45:59;;;;;;;12.65;3.15;;;;;;;;;;5041516;28;20034;-50
2023/08/14 13:48:26;;;;;;;11.38;3.25;;;;;;;;;;5039955;28;20037;-51
2023/08/14 13:50:53;;;;;;;14.57;3.40;;;;;;;;;;5042478;28;20463;-55
2023/08/14 13:53:19;;;;;;;8.10;2.88;;;;;;;;;;5044194;28;20037;-50
2023/08/14 13:55:46;;;;;;;9.15;2.80;;;;;;;;;;5044852;28;20017;-51
2023/08/14 13:58:13;;;;;;;9.13;2.92;;;;;;;;;;5050591;28;20017;-56
2023/08/14 14:00:39;;;;;;;8.40;2.80;;;;;;;;;;5050442;28;20080;-57
2023/08/14 14:03:06;;;;;;;29.13;4.10;;;;;;;;;;5050291;28;20313;-51
2023/08/14 14:05:34;;;;;;;8.45;3.22;;;;;;;;;;5050360;28;20021;-60
2023/08/14 14:08:00;;;;;;;8.70;2.88;;;;;;;;;;5050688;28;20236;-51
2023/08/14 14:10:27;;;;;;;8.70;2.83;;;;;;;;;;5050338;28;20021;-50
2023/08/14 14:12:54;;;;;;;7.80;2.70;;;;;;;;;;5050545;28;20309;-56
2023/08/14 14:15:21;;;;;;;9.15;3.00;;;;;;;;;;5050990;28;20041;-46
2023/08/14 14:17:48;;;;;;;9.88;2.92;;;;;;;;;;5050312;28;20033;-50
2023/08/14 14:20:17;;;;;;;9.23;2.33;;;;;;;;;;5050626;28;20041;-51
2023/08/14 14:22:44;;;;;;;8.32;2.20;;;;;;;;;;5050486;28;20364;-50
2023/08/14 14:25:12;;;;;;;6.88;2.72;;;;;;;;;;5050510;28;20068;-54